sensor_id;sensor_type;location;lat;lon;timestamp;P1;durP1;ratioP1;P2;durP2;ratioP2
5452;SDS011;2749;53.576;9.822;2023-07-30T00:02:20;4.10;;;3.60;;
5452;SDS011;2749;53.576;9.822;2023-07-30T00:04:46;4.87;;;4.40;;
5452;SDS011;2749;53.576;9.822;2023-07-30T00:07:12;4.80;;;4.43;;
5452;SDS011;2749;53.576;9.822;2023-07-30T00:09:38;5.63;;;4.67;;
5452;SDS011;2749;53.576;9.822;2023-07-30T00:12:05;5.00;;;4.47;;
5452;SDS011;2749;53.576;9.822;2023-07-30T00:14:31;4.70;;;4.30;;
5452;SDS011;2749;53.576;9.822;2023-07-30T00:16:57;4.50;;;4.07;;
5452;SDS011;2749;53.576;9.822;2023-07-30T00:19:23;5.10;;;4.60;;
5452;SDS011;2749;53.576;9.822;2023-07-30T00:21:49;4.33;;;3.30;;
5452;SDS011;2749;53.576;9.822;2023-07-30T00:24:15;4.53;;;4.10;;
5452;SDS011;2749;53.576;9.822;2023-07-30T00:26:41;4.37;;;3.97;;
5452;SDS011;2749;53.576;9.822;2023-07-30T00:29:07;5.50;;;5.10;;
5452;SDS011;2749;53.576;9.822;2023-07-30T00:31:33;3.87;;;3.57;;
5452;SDS011;2749;53.576;9.822;2023-07-30T00:33:58;5.03;;;4.20;;
5452;SDS011;2749;53.576;9.822;2023-07-30T00:36:24;5.00;;;4.37;;
5452;SDS011;2749;53.576;9.822;2023-07-30T00:38:50;5.20;;;4.57;;
5452;SDS011;2749;53.576;9.822;2023-07-30T00:41:16;5.93;;;5.40;;
5452;SDS011;2749;53.576;9.822;2023-07-30T00:43:42;4.07;;;3.67;;
5452;SDS011;2749;53.576;9.822;2023-07-30T00:46:08;5.00;;;4.57;;
5452;SDS011;2749;53.576;9.822;2023-07-30T00:48:34;3.80;;;3.50;;
5452;SDS011;2749;53.576;9.822;2023-07-30T00:51:00;6.67;;;2.90;;
5452;SDS011;2749;53.576;9.822;2023-07-30T00:53:26;4.40;;;4.00;;
5452;SDS011;2749;53.576;9.822;2023-07-30T00:55:53;4.73;;;4.13;;
5452;SDS011;2749;53.576;9.822;2023-07-30T00:58:22;6.97;;;4.93;;
5452;SDS011;2749;53.576;9.822;2023-07-30T01:00:49;3.93;;;3.63;;
5452;SDS011;2749;53.576;9.822;2023-07-30T01:03:15;4.40;;;4.00;;
5452;SDS011;2749;53.576;9.822;2023-07-30T01:05:41;4.73;;;4.10;;
5452;SDS011;2749;53.576;9.822;2023-07-30T01:08:07;5.27;;;4.27;;
5452;SDS011;2749;53.576;9.822;2023-07-30T01:10:33;4.87;;;4.43;;
5452;SDS011;2749;53.576;9.822;2023-07-30T01:13:00;6.53;;;3.50;;
5452;SDS011;2749;53.576;9.822;2023-07-30T01:15:27;5.03;;;4.27;;
5452;SDS011;2749;53.576;9.822;2023-07-30T01:17:53;5.77;;;5.17;;
5452;SDS011;2749;53.576;9.822;2023-07-30T01:20:20;4.03;;;3.70;;
5452;SDS011;2749;53.576;9.822;2023-07-30T01:22:46;4.87;;;4.33;;
5452;SDS011;2749;53.576;9.822;2023-07-30T01:25:12;4.73;;;4.33;;
5452;SDS011;2749;53.576;9.822;2023-07-30T01:27:39;6.37;;;4.77;;
5452;SDS011;2749;53.576;9.822;2023-07-30T01:30:07;6.00;;;5.50;;
5452;SDS011;2749;53.576;9.822;2023-07-30T01:32:33;6.13;;;5.53;;
5452;SDS011;2749;53.576;9.822;2023-07-30T01:34:59;5.93;;;4.90;;
5452;SDS011;2749;53.576;9.822;2023-07-30T01:37:26;4.97;;;4.47;;
5452;SDS011;2749;53.576;9.822;2023-07-30T01:39:53;8.27;;;5.00;;
5452;SDS011;2749;53.576;9.822;2023-07-30T01:42:19;5.30;;;4.57;;
5452;SDS011;2749;53.576;9.822;2023-07-30T01:44:45;5.90;;;4.50;;
5452;SDS011;2749;53.576;9.822;2023-07-30T01:47:11;5.67;;;4.90;;
5452;SDS011;2749;53.576;9.822;2023-07-30T01:49:37;6.97;;;4.90;;
5452;SDS011;2749;53.576;9.822;2023-07-30T01:52:03;5.77;;;5.17;;
5452;SDS011;2749;53.576;9.822;2023-07-30T01:54:29;5.57;;;5.07;;
5452;SDS011;2749;53.576;9.822;2023-07-30T01:56:55;8.00;;;6.00;;
5452;SDS011;2749;53.576;9.822;2023-07-30T01:59:21;6.10;;;5.60;;
5452;SDS011;2749;53.576;9.822;2023-07-30T02:01:47;5.60;;;5.20;;
5452;SDS011;2749;53.576;9.822;2023-07-30T02:04:13;6.20;;;5.47;;
5452;SDS011;2749;53.576;9.822;2023-07-30T02:06:39;8.93;;;5.20;;
5452;SDS011;2749;53.576;9.822;2023-07-30T02:09:04;6.03;;;5.53;;
5452;SDS011;2749;53.576;9.822;2023-07-30T02:11:30;6.87;;;6.20;;
5452;SDS011;2749;53.576;9.822;2023-07-30T02:13:56;6.77;;;6.23;;
5452;SDS011;2749;53.576;9.822;2023-07-30T02:16:22;7.47;;;6.77;;
5452;SDS011;2749;53.576;9.822;2023-07-30T02:18:48;7.50;;;6.80;;
5452;SDS011;2749;53.576;9.822;2023-07-30T02:21:14;6.77;;;6.17;;
5452;SDS011;2749;53.576;9.822;2023-07-30T02:23:40;12.23;;;7.10;;
5452;SDS011;2749;53.576;9.822;2023-07-30T02:26:06;11.20;;;7.80;;
5452;SDS011;2749;53.576;9.822;2023-07-30T02:28:32;9.20;;;7.30;;
5452;SDS011;2749;53.576;9.822;2023-07-30T02:30:58;8.20;;;7.37;;
5452;SDS011;2749;53.576;9.822;2023-07-30T02:33:23;8.57;;;7.57;;
5452;SDS011;2749;53.576;9.822;2023-07-30T02:35:49;8.23;;;7.40;;
5452;SDS011;2749;53.576;9.822;2023-07-30T02:38:15;9.63;;;8.63;;
5452;SDS011;2749;53.576;9.822;2023-07-30T02:40:41;9.57;;;8.67;;
5452;SDS011;2749;53.576;9.822;2023-07-30T02:43:07;9.40;;;7.30;;
5452;SDS011;2749;53.576;9.822;2023-07-30T02:45:33;11.07;;;9.90;;
5452;SDS011;2749;53.576;9.822;2023-07-30T02:47:59;10.20;;;9.13;;
5452;SDS011;2749;53.576;9.822;2023-07-30T02:50:25;8.27;;;7.47;;
5452;SDS011;2749;53.576;9.822;2023-07-30T02:52:51;9.10;;;8.30;;
5452;SDS011;2749;53.576;9.822;2023-07-30T02:55:17;9.70;;;8.67;;
5452;SDS011;2749;53.576;9.822;2023-07-30T02:57:43;11.77;;;10.67;;
5452;SDS011;2749;53.576;9.822;2023-07-30T03:00:09;13.60;;;9.60;;
5452;SDS011;2749;53.576;9.822;2023-07-30T03:02:35;10.33;;;9.43;;
5452;SDS011;2749;53.576;9.822;2023-07-30T03:05:01;12.00;;;10.80;;
5452;SDS011;2749;53.576;9.822;2023-07-30T03:07:27;12.10;;;11.00;;
5452;SDS011;2749;53.576;9.822;2023-07-30T03:09:53;13.50;;;11.13;;
5452;SDS011;2749;53.576;9.822;2023-07-30T03:12:19;11.60;;;10.50;;
5452;SDS011;2749;53.576;9.822;2023-07-30T03:14:45;13.17;;;10.80;;
5452;SDS011;2749;53.576;9.822;2023-07-30T03:17:11;14.83;;;10.87;;
5452;SDS011;2749;53.576;9.822;2023-07-30T03:19:37;12.37;;;10.30;;
5452;SDS011;2749;53.576;9.822;2023-07-30T03:22:03;13.40;;;10.60;;
5452;SDS011;2749;53.576;9.822;2023-07-30T03:24:29;11.83;;;10.17;;
5452;SDS011;2749;53.576;9.822;2023-07-30T03:26:55;12.40;;;9.93;;
5452;SDS011;2749;53.576;9.822;2023-07-30T03:29:21;11.10;;;10.07;;
5452;SDS011;2749;53.576;9.822;2023-07-30T03:31:47;13.83;;;12.50;;
5452;SDS011;2749;53.576;9.822;2023-07-30T03:34:13;13.33;;;10.13;;
5452;SDS011;2749;53.576;9.822;2023-07-30T03:36:38;11.80;;;10.67;;
5452;SDS011;2749;53.576;9.822;2023-07-30T03:39:05;30.63;;;12.40;;
5452;SDS011;2749;53.576;9.822;2023-07-30T03:41:31;13.07;;;11.80;;
5452;SDS011;2749;53.576;9.822;2023-07-30T03:43:57;11.40;;;10.30;;
5452;SDS011;2749;53.576;9.822;2023-07-30T03:46:22;12.23;;;9.10;;
5452;SDS011;2749;53.576;9.822;2023-07-30T03:48:48;13.30;;;10.80;;
5452;SDS011;2749;53.576;9.822;2023-07-30T03:51:14;12.40;;;10.67;;
5452;SDS011;2749;53.576;9.822;2023-07-30T03:53:40;14.37;;;9.27;;
5452;SDS011;2749;53.576;9.822;2023-07-30T03:56:07;11.53;;;9.87;;
5452;SDS011;2749;53.576;9.822;2023-07-30T03:58:33;9.50;;;8.50;;
5452;SDS011;2749;53.576;9.822;2023-07-30T04:01:00;11.03;;;9.93;;
5452;SDS011;2749;53.576;9.822;2023-07-30T04:03:26;12.00;;;9.97;;
5452;SDS011;2749;53.576;9.822;2023-07-30T04:05:52;9.60;;;8.70;;
5452;SDS011;2749;53.576;9.822;2023-07-30T04:08:18;8.17;;;7.23;;
5452;SDS011;2749;53.576;9.822;2023-07-30T04:10:44;9.23;;;8.00;;
5452;SDS011;2749;53.576;9.822;2023-07-30T04:13:10;10.30;;;8.73;;
5452;SDS011;2749;53.576;9.822;2023-07-30T04:15:36;10.23;;;9.20;;
5452;SDS011;2749;53.576;9.822;2023-07-30T04:18:02;10.10;;;8.30;;
5452;SDS011;2749;53.576;9.822;2023-07-30T04:20:28;11.57;;;8.57;;
5452;SDS011;2749;53.576;9.822;2023-07-30T04:22:54;9.23;;;8.30;;
5452;SDS011;2749;53.576;9.822;2023-07-30T04:25:19;9.10;;;7.33;;
5452;SDS011;2749;53.576;9.822;2023-07-30T04:27:45;9.67;;;7.53;;
5452;SDS011;2749;53.576;9.822;2023-07-30T04:30:11;7.83;;;7.13;;
5452;SDS011;2749;53.576;9.822;2023-07-30T04:32:37;10.93;;;8.17;;
5452;SDS011;2749;53.576;9.822;2023-07-30T04:35:03;8.37;;;7.50;;
5452;SDS011;2749;53.576;9.822;2023-07-30T04:37:29;11.03;;;7.70;;
5452;SDS011;2749;53.576;9.822;2023-07-30T04:39:56;7.77;;;6.90;;
5452;SDS011;2749;53.576;9.822;2023-07-30T04:42:22;7.30;;;6.17;;
5452;SDS011;2749;53.576;9.822;2023-07-30T04:44:48;12.40;;;7.63;;
5452;SDS011;2749;53.576;9.822;2023-07-30T04:47:14;10.70;;;6.63;;
5452;SDS011;2749;53.576;9.822;2023-07-30T04:49:39;7.17;;;6.50;;
5452;SDS011;2749;53.576;9.822;2023-07-30T04:52:08;9.33;;;7.67;;
5452;SDS011;2749;53.576;9.822;2023-07-30T04:54:34;9.83;;;8.07;;
5452;SDS011;2749;53.576;9.822;2023-07-30T04:57:03;8.17;;;7.33;;
5452;SDS011;2749;53.576;9.822;2023-07-30T04:59:30;8.30;;;7.20;;
5452;SDS011;2749;53.576;9.822;2023-07-30T05:01:58;12.17;;;7.67;;
5452;SDS011;2749;53.576;9.822;2023-07-30T05:04:24;9.27;;;7.60;;
5452;SDS011;2749;53.576;9.822;2023-07-30T05:06:50;7.63;;;6.70;;
5452;SDS011;2749;53.576;9.822;2023-07-30T05:09:16;9.97;;;7.50;;
5452;SDS011;2749;53.576;9.822;2023-07-30T05:11:42;9.20;;;7.40;;
5452;SDS011;2749;53.576;9.822;2023-07-30T05:14:08;10.00;;;7.60;;
5452;SDS011;2749;53.576;9.822;2023-07-30T05:16:34;9.00;;;6.57;;
5452;SDS011;2749;53.576;9.822;2023-07-30T05:19:01;10.20;;;6.63;;
5452;SDS011;2749;53.576;9.822;2023-07-30T05:21:27;8.00;;;7.20;;
5452;SDS011;2749;53.576;9.822;2023-07-30T05:23:53;18.53;;;7.60;;
5452;SDS011;2749;53.576;9.822;2023-07-30T05:26:19;9.70;;;6.70;;
5452;SDS011;2749;53.576;9.822;2023-07-30T05:28:44;11.70;;;7.93;;
5452;SDS011;2749;53.576;9.822;2023-07-30T05:31:10;10.83;;;7.43;;
5452;SDS011;2749;53.576;9.822;2023-07-30T05:33:36;9.30;;;6.90;;
5452;SDS011;2749;53.576;9.822;2023-07-30T05:36:02;9.93;;;7.03;;
5452;SDS011;2749;53.576;9.822;2023-07-30T05:38:28;9.53;;;6.90;;
5452;SDS011;2749;53.576;9.822;2023-07-30T05:40:54;7.60;;;6.80;;
5452;SDS011;2749;53.576;9.822;2023-07-30T05:43:20;11.80;;;6.53;;
5452;SDS011;2749;53.576;9.822;2023-07-30T05:45:46;9.17;;;6.40;;
5452;SDS011;2749;53.576;9.822;2023-07-30T05:48:12;10.93;;;7.03;;
5452;SDS011;2749;53.576;9.822;2023-07-30T05:50:38;11.37;;;6.53;;
5452;SDS011;2749;53.576;9.822;2023-07-30T05:53:04;9.77;;;6.00;;
5452;SDS011;2749;53.576;9.822;2023-07-30T05:55:30;10.37;;;7.20;;
5452;SDS011;2749;53.576;9.822;2023-07-30T05:57:56;7.17;;;6.57;;
5452;SDS011;2749;53.576;9.822;2023-07-30T06:00:22;10.00;;;6.03;;
5452;SDS011;2749;53.576;9.822;2023-07-30T06:02:49;9.93;;;5.87;;
5452;SDS011;2749;53.576;9.822;2023-07-30T06:05:15;10.40;;;7.00;;
5452;SDS011;2749;53.576;9.822;2023-07-30T06:07:41;15.13;;;7.60;;
5452;SDS011;2749;53.576;9.822;2023-07-30T06:10:06;8.40;;;6.30;;
5452;SDS011;2749;53.576;9.822;2023-07-30T06:12:33;11.73;;;7.83;;
5452;SDS011;2749;53.576;9.822;2023-07-30T06:14:59;9.10;;;7.70;;
5452;SDS011;2749;53.576;9.822;2023-07-30T06:17:24;8.40;;;7.30;;
5452;SDS011;2749;53.576;9.822;2023-07-30T06:19:50;9.03;;;6.70;;
5452;SDS011;2749;53.576;9.822;2023-07-30T06:22:16;8.73;;;7.50;;
5452;SDS011;2749;53.576;9.822;2023-07-30T06:24:42;9.27;;;7.43;;
5452;SDS011;2749;53.576;9.822;2023-07-30T06:27:08;12.10;;;7.63;;
5452;SDS011;2749;53.576;9.822;2023-07-30T06:29:35;11.33;;;8.13;;
5452;SDS011;2749;53.576;9.822;2023-07-30T06:32:00;13.03;;;7.50;;
5452;SDS011;2749;53.576;9.822;2023-07-30T06:34:26;8.50;;;7.47;;
5452;SDS011;2749;53.576;9.822;2023-07-30T06:36:52;12.10;;;7.30;;
5452;SDS011;2749;53.576;9.822;2023-07-30T06:39:18;10.87;;;6.97;;
5452;SDS011;2749;53.576;9.822;2023-07-30T06:41:44;12.57;;;8.27;;
5452;SDS011;2749;53.576;9.822;2023-07-30T06:44:10;12.57;;;7.57;;
5452;SDS011;2749;53.576;9.822;2023-07-30T06:46:36;7.90;;;7.07;;
5452;SDS011;2749;53.576;9.822;2023-07-30T06:49:02;12.50;;;7.67;;
5452;SDS011;2749;53.576;9.822;2023-07-30T06:51:28;15.77;;;9.53;;
5452;SDS011;2749;53.576;9.822;2023-07-30T06:53:54;12.97;;;7.67;;
5452;SDS011;2749;53.576;9.822;2023-07-30T06:56:20;14.10;;;8.27;;
5452;SDS011;2749;53.576;9.822;2023-07-30T06:58:46;14.43;;;8.53;;
5452;SDS011;2749;53.576;9.822;2023-07-30T07:01:12;15.00;;;6.23;;
5452;SDS011;2749;53.576;9.822;2023-07-30T07:03:38;14.93;;;8.37;;
5452;SDS011;2749;53.576;9.822;2023-07-30T07:06:04;19.80;;;8.80;;
5452;SDS011;2749;53.576;9.822;2023-07-30T07:08:30;13.50;;;8.33;;
5452;SDS011;2749;53.576;9.822;2023-07-30T07:10:56;15.90;;;6.93;;
5452;SDS011;2749;53.576;9.822;2023-07-30T07:13:22;19.03;;;7.30;;
5452;SDS011;2749;53.576;9.822;2023-07-30T07:15:48;15.30;;;7.33;;
5452;SDS011;2749;53.576;9.822;2023-07-30T07:18:14;20.10;;;8.33;;
5452;SDS011;2749;53.576;9.822;2023-07-30T07:20:40;15.50;;;7.87;;
5452;SDS011;2749;53.576;9.822;2023-07-30T07:23:06;13.80;;;8.10;;
5452;SDS011;2749;53.576;9.822;2023-07-30T07:25:32;12.43;;;7.17;;
5452;SDS011;2749;53.576;9.822;2023-07-30T07:27:58;15.40;;;8.90;;
5452;SDS011;2749;53.576;9.822;2023-07-30T07:30:24;13.63;;;7.63;;
5452;SDS011;2749;53.576;9.822;2023-07-30T07:32:51;12.83;;;8.13;;
5452;SDS011;2749;53.576;9.822;2023-07-30T07:35:18;18.63;;;8.73;;
5452;SDS011;2749;53.576;9.822;2023-07-30T07:37:47;19.27;;;8.40;;
5452;SDS011;2749;53.576;9.822;2023-07-30T07:40:13;14.63;;;7.87;;
5452;SDS011;2749;53.576;9.822;2023-07-30T07:42:40;15.67;;;8.07;;
5452;SDS011;2749;53.576;9.822;2023-07-30T07:45:06;9.20;;;7.50;;
5452;SDS011;2749;53.576;9.822;2023-07-30T07:47:33;15.70;;;8.57;;
5452;SDS011;2749;53.576;9.822;2023-07-30T07:49:59;15.37;;;9.13;;
5452;SDS011;2749;53.576;9.822;2023-07-30T07:52:25;9.93;;;7.37;;
5452;SDS011;2749;53.576;9.822;2023-07-30T07:54:51;11.30;;;7.43;;
5452;SDS011;2749;53.576;9.822;2023-07-30T07:57:17;12.57;;;8.50;;
5452;SDS011;2749;53.576;9.822;2023-07-30T07:59:43;12.80;;;8.30;;
5452;SDS011;2749;53.576;9.822;2023-07-30T08:02:10;15.07;;;9.37;;
5452;SDS011;2749;53.576;9.822;2023-07-30T08:04:37;13.37;;;9.00;;
5452;SDS011;2749;53.576;9.822;2023-07-30T08:07:03;13.20;;;8.73;;
5452;SDS011;2749;53.576;9.822;2023-07-30T08:09:29;16.87;;;10.20;;
5452;SDS011;2749;53.576;9.822;2023-07-30T08:11:55;19.83;;;11.17;;
5452;SDS011;2749;53.576;9.822;2023-07-30T08:14:21;18.93;;;10.00;;
5452;SDS011;2749;53.576;9.822;2023-07-30T08:16:47;16.63;;;8.93;;
5452;SDS011;2749;53.576;9.822;2023-07-30T08:19:13;14.63;;;9.93;;
5452;SDS011;2749;53.576;9.822;2023-07-30T08:21:39;15.60;;;9.53;;
5452;SDS011;2749;53.576;9.822;2023-07-30T08:24:05;11.23;;;8.93;;
5452;SDS011;2749;53.576;9.822;2023-07-30T08:26:31;12.97;;;10.73;;
5452;SDS011;2749;53.576;9.822;2023-07-30T08:28:57;12.63;;;10.13;;
5452;SDS011;2749;53.576;9.822;2023-07-30T08:31:23;11.63;;;9.23;;
5452;SDS011;2749;53.576;9.822;2023-07-30T08:33:49;14.83;;;8.30;;
5452;SDS011;2749;53.576;9.822;2023-07-30T08:36:15;20.17;;;8.17;;
5452;SDS011;2749;53.576;9.822;2023-07-30T08:38:41;12.17;;;7.67;;
5452;SDS011;2749;53.576;9.822;2023-07-30T08:41:07;19.33;;;6.60;;
5452;SDS011;2749;53.576;9.822;2023-07-30T08:43:34;23.47;;;8.20;;
5452;SDS011;2749;53.576;9.822;2023-07-30T08:46:00;16.37;;;7.37;;
5452;SDS011;2749;53.576;9.822;2023-07-30T08:48:26;10.40;;;5.43;;
5452;SDS011;2749;53.576;9.822;2023-07-30T08:50:54;17.30;;;5.33;;
5452;SDS011;2749;53.576;9.822;2023-07-30T08:53:22;11.80;;;5.20;;
5452;SDS011;2749;53.576;9.822;2023-07-30T08:55:48;14.03;;;6.50;;
5452;SDS011;2749;53.576;9.822;2023-07-30T08:58:14;6.43;;;4.70;;
5452;SDS011;2749;53.576;9.822;2023-07-30T09:00:42;5.43;;;3.90;;
5452;SDS011;2749;53.576;9.822;2023-07-30T09:03:08;7.43;;;4.10;;
5452;SDS011;2749;53.576;9.822;2023-07-30T09:05:34;7.60;;;4.97;;
5452;SDS011;2749;53.576;9.822;2023-07-30T09:08:00;15.10;;;6.97;;
5452;SDS011;2749;53.576;9.822;2023-07-30T09:10:26;10.77;;;4.20;;
5452;SDS011;2749;53.576;9.822;2023-07-30T09:12:53;10.97;;;4.50;;
5452;SDS011;2749;53.576;9.822;2023-07-30T09:17:57;10.33;;;4.60;;
5452;SDS011;2749;53.576;9.822;2023-07-30T09:20:23;10.60;;;5.10;;
5452;SDS011;2749;53.576;9.822;2023-07-30T09:22:49;11.83;;;5.03;;
5452;SDS011;2749;53.576;9.822;2023-07-30T09:25:17;9.70;;;5.20;;
5452;SDS011;2749;53.576;9.822;2023-07-30T09:27:47;12.50;;;6.30;;
5452;SDS011;2749;53.576;9.822;2023-07-30T09:30:13;8.07;;;4.20;;
5452;SDS011;2749;53.576;9.822;2023-07-30T09:32:39;14.03;;;5.20;;
5452;SDS011;2749;53.576;9.822;2023-07-30T09:35:06;12.63;;;5.83;;
5452;SDS011;2749;53.576;9.822;2023-07-30T09:37:36;11.20;;;6.53;;
5452;SDS011;2749;53.576;9.822;2023-07-30T09:40:03;12.70;;;7.63;;
5452;SDS011;2749;53.576;9.822;2023-07-30T09:42:30;14.23;;;5.50;;
5452;SDS011;2749;53.576;9.822;2023-07-30T09:44:58;9.63;;;5.77;;
5452;SDS011;2749;53.576;9.822;2023-07-30T09:47:25;7.70;;;4.50;;
5452;SDS011;2749;53.576;9.822;2023-07-30T09:49:51;12.60;;;5.30;;
5452;SDS011;2749;53.576;9.822;2023-07-30T09:52:17;15.00;;;5.60;;
5452;SDS011;2749;53.576;9.822;2023-07-30T09:54:43;10.60;;;5.00;;
5452;SDS011;2749;53.576;9.822;2023-07-30T09:57:09;14.43;;;4.73;;
5452;SDS011;2749;53.576;9.822;2023-07-30T09:59:35;9.00;;;4.17;;
5452;SDS011;2749;53.576;9.822;2023-07-30T10:02:03;11.33;;;5.53;;
5452;SDS011;2749;53.576;9.822;2023-07-30T10:04:29;14.23;;;6.50;;
5452;SDS011;2749;53.576;9.822;2023-07-30T10:07:01;13.80;;;6.03;;
5452;SDS011;2749;53.576;9.822;2023-07-30T10:09:30;11.80;;;6.20;;
5452;SDS011;2749;53.576;9.822;2023-07-30T10:11:56;10.30;;;6.97;;
5452;SDS011;2749;53.576;9.822;2023-07-30T10:14:23;12.50;;;5.90;;
5452;SDS011;2749;53.576;9.822;2023-07-30T10:16:54;7.63;;;5.20;;
5452;SDS011;2749;53.576;9.822;2023-07-30T10:19:27;5.93;;;5.20;;
5452;SDS011;2749;53.576;9.822;2023-07-30T10:21:57;8.20;;;5.13;;
5452;SDS011;2749;53.576;9.822;2023-07-30T10:24:25;6.87;;;4.50;;
5452;SDS011;2749;53.576;9.822;2023-07-30T10:26:52;9.37;;;5.63;;
5452;SDS011;2749;53.576;9.822;2023-07-30T10:29:19;7.10;;;5.40;;
5452;SDS011;2749;53.576;9.822;2023-07-30T10:31:51;7.80;;;4.80;;
5452;SDS011;2749;53.576;9.822;2023-07-30T10:34:17;15.00;;;4.40;;
5452;SDS011;2749;53.576;9.822;2023-07-30T10:36:44;10.03;;;3.60;;
5452;SDS011;2749;53.576;9.822;2023-07-30T10:41:37;7.20;;;3.93;;
5452;SDS011;2749;53.576;9.822;2023-07-30T10:44:03;10.90;;;3.77;;
5452;SDS011;2749;53.576;9.822;2023-07-30T10:46:29;5.77;;;3.00;;
5452;SDS011;2749;53.576;9.822;2023-07-30T10:48:55;8.23;;;3.27;;
5452;SDS011;2749;53.576;9.822;2023-07-30T10:51:21;10.03;;;3.70;;
5452;SDS011;2749;53.576;9.822;2023-07-30T10:53:48;4.00;;;2.90;;
5452;SDS011;2749;53.576;9.822;2023-07-30T10:56:15;5.23;;;2.50;;
5452;SDS011;2749;53.576;9.822;2023-07-30T10:58:42;7.93;;;3.30;;
5452;SDS011;2749;53.576;9.822;2023-07-30T11:01:08;11.17;;;2.77;;
5452;SDS011;2749;53.576;9.822;2023-07-30T11:03:35;5.03;;;2.97;;
5452;SDS011;2749;53.576;9.822;2023-07-30T11:06:03;5.17;;;3.27;;
5452;SDS011;2749;53.576;9.822;2023-07-30T11:08:35;10.53;;;3.10;;
5452;SDS011;2749;53.576;9.822;2023-07-30T11:11:01;10.17;;;2.93;;
5452;SDS011;2749;53.576;9.822;2023-07-30T11:13:27;3.93;;;2.30;;
5452;SDS011;2749;53.576;9.822;2023-07-30T11:15:53;5.03;;;2.57;;
5452;SDS011;2749;53.576;9.822;2023-07-30T11:18:19;4.07;;;2.43;;
5452;SDS011;2749;53.576;9.822;2023-07-30T11:20:45;7.70;;;3.17;;
5452;SDS011;2749;53.576;9.822;2023-07-30T11:23:18;5.50;;;2.50;;
5452;SDS011;2749;53.576;9.822;2023-07-30T11:25:45;7.37;;;3.57;;
5452;SDS011;2749;53.576;9.822;2023-07-30T11:28:12;7.20;;;2.70;;
5452;SDS011;2749;53.576;9.822;2023-07-30T11:30:38;7.37;;;3.00;;
5452;SDS011;2749;53.576;9.822;2023-07-30T11:33:04;4.40;;;2.53;;
5452;SDS011;2749;53.576;9.822;2023-07-30T11:35:30;6.23;;;2.97;;
5452;SDS011;2749;53.576;9.822;2023-07-30T11:37:56;6.30;;;2.90;;
5452;SDS011;2749;53.576;9.822;2023-07-30T11:40:22;6.10;;;3.20;;
5452;SDS011;2749;53.576;9.822;2023-07-30T11:42:49;7.60;;;2.57;;
5452;SDS011;2749;53.576;9.822;2023-07-30T11:45:18;7.93;;;2.17;;
5452;SDS011;2749;53.576;9.822;2023-07-30T11:47:45;8.03;;;2.43;;
5452;SDS011;2749;53.576;9.822;2023-07-30T11:50:11;4.47;;;2.13;;
5452;SDS011;2749;53.576;9.822;2023-07-30T11:52:50;6.30;;;2.97;;
5452;SDS011;2749;53.576;9.822;2023-07-30T11:55:16;8.03;;;3.67;;
5452;SDS011;2749;53.576;9.822;2023-07-30T11:57:42;3.80;;;2.77;;
5452;SDS011;2749;53.576;9.822;2023-07-30T12:00:08;5.90;;;2.60;;
5452;SDS011;2749;53.576;9.822;2023-07-30T12:02:34;5.80;;;2.90;;
5452;SDS011;2749;53.576;9.822;2023-07-30T12:05:00;5.67;;;3.10;;
5452;SDS011;2749;53.576;9.822;2023-07-30T12:07:28;6.17;;;3.00;;
5452;SDS011;2749;53.576;9.822;2023-07-30T12:09:54;5.03;;;2.60;;
5452;SDS011;2749;53.576;9.822;2023-07-30T12:12:24;9.00;;;3.47;;
5452;SDS011;2749;53.576;9.822;2023-07-30T12:17:16;6.93;;;2.50;;
5452;SDS011;2749;53.576;9.822;2023-07-30T12:19:42;5.90;;;2.50;;
5452;SDS011;2749;53.576;9.822;2023-07-30T12:22:08;4.70;;;2.00;;
5452;SDS011;2749;53.576;9.822;2023-07-30T12:24:34;4.40;;;2.10;;
5452;SDS011;2749;53.576;9.822;2023-07-30T12:27:01;5.50;;;2.40;;
5452;SDS011;2749;53.576;9.822;2023-07-30T12:29:27;8.57;;;2.60;;
5452;SDS011;2749;53.576;9.822;2023-07-30T12:31:52;8.50;;;4.13;;
5452;SDS011;2749;53.576;9.822;2023-07-30T12:34:22;9.00;;;3.37;;
5452;SDS011;2749;53.576;9.822;2023-07-30T12:36:48;7.60;;;2.30;;
5452;SDS011;2749;53.576;9.822;2023-07-30T12:39:14;6.13;;;2.80;;
5452;SDS011;2749;53.576;9.822;2023-07-30T12:41:40;5.60;;;2.47;;
5452;SDS011;2749;53.576;9.822;2023-07-30T12:44:06;4.33;;;2.87;;
5452;SDS011;2749;53.576;9.822;2023-07-30T12:46:32;6.23;;;2.97;;
5452;SDS011;2749;53.576;9.822;2023-07-30T12:48:59;4.33;;;2.53;;
5452;SDS011;2749;53.576;9.822;2023-07-30T12:51:29;9.13;;;3.80;;
5452;SDS011;2749;53.576;9.822;2023-07-30T12:53:55;6.00;;;3.77;;
5452;SDS011;2749;53.576;9.822;2023-07-30T12:56:21;8.30;;;2.87;;
5452;SDS011;2749;53.576;9.822;2023-07-30T12:58:47;5.37;;;3.17;;
5452;SDS011;2749;53.576;9.822;2023-07-30T13:01:13;6.67;;;2.90;;
5452;SDS011;2749;53.576;9.822;2023-07-30T13:03:39;7.67;;;3.00;;
5452;SDS011;2749;53.576;9.822;2023-07-30T13:06:10;4.60;;;2.07;;
5452;SDS011;2749;53.576;9.822;2023-07-30T13:08:36;5.33;;;2.50;;
5452;SDS011;2749;53.576;9.822;2023-07-30T13:11:01;4.30;;;2.77;;
5452;SDS011;2749;53.576;9.822;2023-07-30T13:13:27;5.73;;;2.63;;
5452;SDS011;2749;53.576;9.822;2023-07-30T13:15:53;2.57;;;1.90;;
5452;SDS011;2749;53.576;9.822;2023-07-30T13:18:22;2.50;;;1.80;;
5452;SDS011;2749;53.576;9.822;2023-07-30T13:20:48;6.50;;;2.90;;
5452;SDS011;2749;53.576;9.822;2023-07-30T13:23:15;3.87;;;2.47;;
5452;SDS011;2749;53.576;9.822;2023-07-30T13:25:41;2.13;;;1.93;;
5452;SDS011;2749;53.576;9.822;2023-07-30T13:28:07;2.30;;;2.10;;
5452;SDS011;2749;53.576;9.822;2023-07-30T13:30:33;6.70;;;2.80;;
5452;SDS011;2749;53.576;9.822;2023-07-30T13:32:59;5.07;;;2.40;;
5452;SDS011;2749;53.576;9.822;2023-07-30T13:35:24;3.03;;;2.50;;
5452;SDS011;2749;53.576;9.822;2023-07-30T13:37:50;4.47;;;3.20;;
5452;SDS011;2749;53.576;9.822;2023-07-30T13:40:16;4.53;;;3.03;;
5452;SDS011;2749;53.576;9.822;2023-07-30T13:42:42;4.23;;;3.10;;
5452;SDS011;2749;53.576;9.822;2023-07-30T13:45:08;8.60;;;3.17;;
5452;SDS011;2749;53.576;9.822;2023-07-30T13:47:34;6.43;;;2.30;;
5452;SDS011;2749;53.576;9.822;2023-07-30T13:50:01;4.83;;;2.43;;
5452;SDS011;2749;53.576;9.822;2023-07-30T13:52:26;3.20;;;2.73;;
5452;SDS011;2749;53.576;9.822;2023-07-30T13:54:52;5.57;;;3.37;;
5452;SDS011;2749;53.576;9.822;2023-07-30T13:57:24;3.97;;;3.33;;
5452;SDS011;2749;53.576;9.822;2023-07-30T13:59:51;3.07;;;2.70;;
5452;SDS011;2749;53.576;9.822;2023-07-30T14:02:17;4.63;;;2.43;;
5452;SDS011;2749;53.576;9.822;2023-07-30T14:04:43;3.90;;;2.37;;
5452;SDS011;2749;53.576;9.822;2023-07-30T14:07:09;3.97;;;3.27;;
5452;SDS011;2749;53.576;9.822;2023-07-30T14:09:35;3.13;;;2.83;;
5452;SDS011;2749;53.576;9.822;2023-07-30T14:12:04;2.73;;;2.53;;
5452;SDS011;2749;53.576;9.822;2023-07-30T14:14:30;4.37;;;2.20;;
5452;SDS011;2749;53.576;9.822;2023-07-30T14:16:56;2.53;;;1.87;;
5452;SDS011;2749;53.576;9.822;2023-07-30T14:19:22;3.97;;;1.87;;
5452;SDS011;2749;53.576;9.822;2023-07-30T14:21:48;7.97;;;2.20;;
5452;SDS011;2749;53.576;9.822;2023-07-30T14:24:14;2.03;;;1.43;;
5452;SDS011;2749;53.576;9.822;2023-07-30T14:26:40;1.90;;;1.40;;
5452;SDS011;2749;53.576;9.822;2023-07-30T14:29:07;2.20;;;1.83;;
5452;SDS011;2749;53.576;9.822;2023-07-30T14:31:33;6.70;;;2.03;;
5452;SDS011;2749;53.576;9.822;2023-07-30T14:33:59;1.77;;;1.63;;
5452;SDS011;2749;53.576;9.822;2023-07-30T14:36:25;3.83;;;1.93;;
5452;SDS011;2749;53.576;9.822;2023-07-30T14:38:50;1.93;;;1.40;;
5452;SDS011;2749;53.576;9.822;2023-07-30T14:41:16;1.80;;;1.23;;
5452;SDS011;2749;53.576;9.822;2023-07-30T14:43:42;6.77;;;2.13;;
5452;SDS011;2749;53.576;9.822;2023-07-30T14:46:08;12.10;;;2.00;;
5452;SDS011;2749;53.576;9.822;2023-07-30T14:48:39;6.80;;;1.60;;
5452;SDS011;2749;53.576;9.822;2023-07-30T14:51:05;2.97;;;1.67;;
5452;SDS011;2749;53.576;9.822;2023-07-30T14:53:31;2.30;;;1.47;;
5452;SDS011;2749;53.576;9.822;2023-07-30T14:55:57;2.80;;;1.33;;
5452;SDS011;2749;53.576;9.822;2023-07-30T14:58:23;4.20;;;1.43;;
5452;SDS011;2749;53.576;9.822;2023-07-30T15:00:49;4.63;;;1.50;;
5452;SDS011;2749;53.576;9.822;2023-07-30T15:03:15;6.03;;;2.00;;
5452;SDS011;2749;53.576;9.822;2023-07-30T15:05:41;5.23;;;2.33;;
5452;SDS011;2749;53.576;9.822;2023-07-30T15:08:07;4.63;;;1.53;;
5452;SDS011;2749;53.576;9.822;2023-07-30T15:10:33;5.80;;;1.73;;
5452;SDS011;2749;53.576;9.822;2023-07-30T15:12:59;4.00;;;1.70;;